sensor_id;sensor_type;location;lat;lon;timestamp;P1;durP1;ratioP1;P2;durP2;ratioP2
16800;SDS011;8518;53.236;10.384;2022-10-16T00:01:16;5.93;;;5.03;;
16800;SDS011;8518;53.236;10.384;2022-10-16T00:03:43;4.60;;;4.20;;
16800;SDS011;8518;53.236;10.384;2022-10-16T00:06:10;6.27;;;4.33;;
16800;SDS011;8518;53.236;10.384;2022-10-16T00:08:36;4.87;;;4.33;;
16800;SDS011;8518;53.236;10.384;2022-10-16T00:11:04;4.50;;;4.10;;
16800;SDS011;8518;53.236;10.384;2022-10-16T00:13:32;5.30;;;4.77;;
16800;SDS011;8518;53.236;10.384;2022-10-16T00:15:58;5.40;;;4.90;;
16800;SDS011;8518;53.236;10.384;2022-10-16T00:18:25;5.50;;;5.00;;
16800;SDS011;8518;53.236;10.384;2022-10-16T00:20:51;5.37;;;4.87;;
16800;SDS011;8518;53.236;10.384;2022-10-16T00:23:17;6.90;;;4.93;;
16800;SDS011;8518;53.236;10.384;2022-10-16T00:25:43;5.37;;;4.83;;
16800;SDS011;8518;53.236;10.384;2022-10-16T00:28:09;5.47;;;4.97;;
16800;SDS011;8518;53.236;10.384;2022-10-16T00:30:37;6.90;;;5.33;;
16800;SDS011;8518;53.236;10.384;2022-10-16T00:33:03;5.50;;;4.73;;
16800;SDS011;8518;53.236;10.384;2022-10-16T00:35:30;5.87;;;5.10;;
16800;SDS011;8518;53.236;10.384;2022-10-16T00:37:56;5.17;;;4.67;;
16800;SDS011;8518;53.236;10.384;2022-10-16T00:40:21;5.57;;;4.80;;
16800;SDS011;8518;53.236;10.384;2022-10-16T00:42:47;4.67;;;4.23;;
16800;SDS011;8518;53.236;10.384;2022-10-16T00:45:13;4.93;;;4.17;;
16800;SDS011;8518;53.236;10.384;2022-10-16T00:47:39;4.27;;;3.87;;
16800;SDS011;8518;53.236;10.384;2022-10-16T00:52:45;4.47;;;4.00;;
16800;SDS011;8518;53.236;10.384;2022-10-16T00:55:13;5.10;;;3.50;;
16800;SDS011;8518;53.236;10.384;2022-10-16T00:57:39;3.97;;;3.50;;
16800;SDS011;8518;53.236;10.384;2022-10-16T01:00:06;4.63;;;3.50;;
16800;SDS011;8518;53.236;10.384;2022-10-16T01:02:34;3.60;;;3.03;;
16800;SDS011;8518;53.236;10.384;2022-10-16T01:04:59;3.90;;;2.90;;
16800;SDS011;8518;53.236;10.384;2022-10-16T01:15:38;3.30;;;2.10;;
16800;SDS011;8518;53.236;10.384;2022-10-16T01:21:01;6.57;;;2.03;;
16800;SDS011;8518;53.236;10.384;2022-10-16T01:28:55;2.77;;;1.57;;
16800;SDS011;8518;53.236;10.384;2022-10-16T01:31:26;2.93;;;1.80;;
16800;SDS011;8518;53.236;10.384;2022-10-16T01:34:16;5.33;;;1.97;;
16800;SDS011;8518;53.236;10.384;2022-10-16T01:36:45;1.83;;;1.57;;
16800;SDS011;8518;53.236;10.384;2022-10-16T01:39:22;2.93;;;1.27;;
16800;SDS011;8518;53.236;10.384;2022-10-16T01:41:54;1.97;;;1.60;;
16800;SDS011;8518;53.236;10.384;2022-10-16T01:44:25;1.73;;;1.40;;
16800;SDS011;8518;53.236;10.384;2022-10-16T01:46:55;4.50;;;1.87;;
16800;SDS011;8518;53.236;10.384;2022-10-16T01:49:23;3.60;;;1.50;;
16800;SDS011;8518;53.236;10.384;2022-10-16T01:51:52;4.23;;;1.40;;
16800;SDS011;8518;53.236;10.384;2022-10-16T01:54:21;2.63;;;1.60;;
16800;SDS011;8518;53.236;10.384;2022-10-16T01:56:50;3.27;;;1.40;;
16800;SDS011;8518;53.236;10.384;2022-10-16T01:59:18;2.90;;;1.40;;
16800;SDS011;8518;53.236;10.384;2022-10-16T02:01:50;5.17;;;1.37;;
16800;SDS011;8518;53.236;10.384;2022-10-16T02:06:59;1.87;;;1.13;;
16800;SDS011;8518;53.236;10.384;2022-10-16T02:09:25;2.20;;;0.90;;
16800;SDS011;8518;53.236;10.384;2022-10-16T02:11:52;1.43;;;1.00;;
16800;SDS011;8518;53.236;10.384;2022-10-16T02:14:20;5.23;;;1.50;;
16800;SDS011;8518;53.236;10.384;2022-10-16T02:16:49;1.97;;;1.13;;
16800;SDS011;8518;53.236;10.384;2022-10-16T02:19:15;1.80;;;1.10;;
16800;SDS011;8518;53.236;10.384;2022-10-16T02:21:54;3.40;;;1.00;;
16800;SDS011;8518;53.236;10.384;2022-10-16T02:27:11;3.17;;;1.20;;
16800;SDS011;8518;53.236;10.384;2022-10-16T02:29:42;3.13;;;1.20;;
16800;SDS011;8518;53.236;10.384;2022-10-16T02:32:13;2.00;;;1.23;;
16800;SDS011;8518;53.236;10.384;2022-10-16T02:34:42;2.70;;;1.00;;
16800;SDS011;8518;53.236;10.384;2022-10-16T02:37:08;4.93;;;1.50;;
16800;SDS011;8518;53.236;10.384;2022-10-16T02:39:35;2.33;;;1.40;;
16800;SDS011;8518;53.236;10.384;2022-10-16T02:42:02;1.83;;;0.73;;
16800;SDS011;8518;53.236;10.384;2022-10-16T02:44:28;2.70;;;1.00;;
16800;SDS011;8518;53.236;10.384;2022-10-16T02:46:54;2.27;;;1.23;;
16800;SDS011;8518;53.236;10.384;2022-10-16T02:49:20;4.17;;;1.30;;
16800;SDS011;8518;53.236;10.384;2022-10-16T02:51:45;3.23;;;1.30;;
16800;SDS011;8518;53.236;10.384;2022-10-16T02:54:11;4.60;;;1.27;;
16800;SDS011;8518;53.236;10.384;2022-10-16T02:56:37;2.83;;;1.10;;
16800;SDS011;8518;53.236;10.384;2022-10-16T02:59:03;2.30;;;0.90;;
16800;SDS011;8518;53.236;10.384;2022-10-16T03:01:29;2.53;;;1.20;;
16800;SDS011;8518;53.236;10.384;2022-10-16T03:03:55;3.93;;;1.30;;
16800;SDS011;8518;53.236;10.384;2022-10-16T03:06:20;2.40;;;1.07;;
16800;SDS011;8518;53.236;10.384;2022-10-16T03:08:46;5.40;;;1.10;;
16800;SDS011;8518;53.236;10.384;2022-10-16T03:11:12;2.87;;;1.23;;
16800;SDS011;8518;53.236;10.384;2022-10-16T03:13:37;2.03;;;1.20;;
16800;SDS011;8518;53.236;10.384;2022-10-16T03:16:03;3.70;;;1.00;;
16800;SDS011;8518;53.236;10.384;2022-10-16T03:18:29;3.80;;;1.17;;
16800;SDS011;8518;53.236;10.384;2022-10-16T03:20:54;4.93;;;1.60;;
16800;SDS011;8518;53.236;10.384;2022-10-16T03:23:20;2.80;;;1.20;;
16800;SDS011;8518;53.236;10.384;2022-10-16T03:25:45;4.60;;;1.50;;
16800;SDS011;8518;53.236;10.384;2022-10-16T03:28:11;2.10;;;1.37;;
16800;SDS011;8518;53.236;10.384;2022-10-16T03:30:36;2.23;;;1.10;;
16800;SDS011;8518;53.236;10.384;2022-10-16T03:33:04;2.20;;;1.00;;
16800;SDS011;8518;53.236;10.384;2022-10-16T03:35:30;3.43;;;1.30;;
16800;SDS011;8518;53.236;10.384;2022-10-16T03:37:57;1.53;;;0.97;;
16800;SDS011;8518;53.236;10.384;2022-10-16T03:40:22;3.47;;;1.43;;
16800;SDS011;8518;53.236;10.384;2022-10-16T03:42:48;2.47;;;1.23;;
16800;SDS011;8518;53.236;10.384;2022-10-16T03:45:14;1.87;;;1.13;;
16800;SDS011;8518;53.236;10.384;2022-10-16T03:47:39;4.00;;;1.00;;
16800;SDS011;8518;53.236;10.384;2022-10-16T03:50:06;3.27;;;1.40;;
16800;SDS011;8518;53.236;10.384;2022-10-16T03:52:32;2.80;;;1.30;;
16800;SDS011;8518;53.236;10.384;2022-10-16T03:54:57;5.53;;;1.20;;
16800;SDS011;8518;53.236;10.384;2022-10-16T03:57:23;2.50;;;1.20;;
16800;SDS011;8518;53.236;10.384;2022-10-16T03:59:49;3.00;;;1.17;;
16800;SDS011;8518;53.236;10.384;2022-10-16T04:02:15;2.80;;;1.40;;
16800;SDS011;8518;53.236;10.384;2022-10-16T04:04:41;2.70;;;1.20;;
16800;SDS011;8518;53.236;10.384;2022-10-16T04:07:07;3.40;;;1.30;;
16800;SDS011;8518;53.236;10.384;2022-10-16T04:09:32;3.07;;;1.20;;
16800;SDS011;8518;53.236;10.384;2022-10-16T04:11:58;5.67;;;1.30;;
16800;SDS011;8518;53.236;10.384;2022-10-16T04:14:23;2.93;;;1.30;;
16800;SDS011;8518;53.236;10.384;2022-10-16T04:16:49;3.40;;;1.27;;
16800;SDS011;8518;53.236;10.384;2022-10-16T04:19:14;3.90;;;1.50;;
16800;SDS011;8518;53.236;10.384;2022-10-16T04:21:40;5.97;;;1.30;;
16800;SDS011;8518;53.236;10.384;2022-10-16T04:24:06;3.03;;;1.53;;
16800;SDS011;8518;53.236;10.384;2022-10-16T04:26:31;3.30;;;1.30;;
16800;SDS011;8518;53.236;10.384;2022-10-16T04:28:57;4.37;;;1.43;;
16800;SDS011;8518;53.236;10.384;2022-10-16T04:31:22;4.37;;;1.50;;
16800;SDS011;8518;53.236;10.384;2022-10-16T04:33:48;1.63;;;1.40;;
16800;SDS011;8518;53.236;10.384;2022-10-16T04:36:14;4.60;;;2.23;;
16800;SDS011;8518;53.236;10.384;2022-10-16T04:38:39;4.27;;;1.60;;
16800;SDS011;8518;53.236;10.384;2022-10-16T04:41:05;2.97;;;1.60;;
16800;SDS011;8518;53.236;10.384;2022-10-16T04:43:32;3.00;;;1.50;;
16800;SDS011;8518;53.236;10.384;2022-10-16T04:45:58;4.83;;;1.80;;
16800;SDS011;8518;53.236;10.384;2022-10-16T04:48:24;4.93;;;1.60;;
16800;SDS011;8518;53.236;10.384;2022-10-16T04:50:49;3.10;;;1.70;;
16800;SDS011;8518;53.236;10.384;2022-10-16T04:53:15;1.80;;;1.40;;
16800;SDS011;8518;53.236;10.384;2022-10-16T04:55:41;2.40;;;1.40;;
16800;SDS011;8518;53.236;10.384;2022-10-16T04:58:07;4.27;;;1.53;;
16800;SDS011;8518;53.236;10.384;2022-10-16T05:00:33;3.17;;;1.27;;
16800;SDS011;8518;53.236;10.384;2022-10-16T05:02:59;4.93;;;1.67;;
16800;SDS011;8518;53.236;10.384;2022-10-16T05:05:25;3.67;;;1.60;;
16800;SDS011;8518;53.236;10.384;2022-10-16T05:07:52;4.43;;;2.00;;
16800;SDS011;8518;53.236;10.384;2022-10-16T05:10:17;3.13;;;1.87;;
16800;SDS011;8518;53.236;10.384;2022-10-16T05:12:43;2.90;;;1.50;;
16800;SDS011;8518;53.236;10.384;2022-10-16T05:15:09;4.03;;;1.60;;
16800;SDS011;8518;53.236;10.384;2022-10-16T05:17:35;2.93;;;1.73;;
16800;SDS011;8518;53.236;10.384;2022-10-16T05:20:00;3.73;;;1.50;;
16800;SDS011;8518;53.236;10.384;2022-10-16T05:22:26;4.53;;;1.77;;
16800;SDS011;8518;53.236;10.384;2022-10-16T05:24:52;3.37;;;1.93;;
16800;SDS011;8518;53.236;10.384;2022-10-16T05:27:18;6.03;;;1.80;;
16800;SDS011;8518;53.236;10.384;2022-10-16T05:29:46;3.23;;;1.60;;
16800;SDS011;8518;53.236;10.384;2022-10-16T05:32:16;3.90;;;1.77;;
16800;SDS011;8518;53.236;10.384;2022-10-16T05:34:43;3.87;;;1.67;;
16800;SDS011;8518;53.236;10.384;2022-10-16T05:37:09;4.53;;;1.93;;
16800;SDS011;8518;53.236;10.384;2022-10-16T05:39:35;5.00;;;1.80;;
16800;SDS011;8518;53.236;10.384;2022-10-16T05:42:01;3.57;;;1.90;;
16800;SDS011;8518;53.236;10.384;2022-10-16T05:44:27;4.40;;;1.80;;
16800;SDS011;8518;53.236;10.384;2022-10-16T05:46:53;2.93;;;1.70;;
16800;SDS011;8518;53.236;10.384;2022-10-16T05:49:18;3.77;;;1.80;;
16800;SDS011;8518;53.236;10.384;2022-10-16T05:51:44;4.53;;;1.70;;
16800;SDS011;8518;53.236;10.384;2022-10-16T05:54:10;5.17;;;1.80;;
16800;SDS011;8518;53.236;10.384;2022-10-16T05:56:35;3.90;;;1.70;;
16800;SDS011;8518;53.236;10.384;2022-10-16T05:59:02;3.43;;;1.70;;
16800;SDS011;8518;53.236;10.384;2022-10-16T06:01:29;3.50;;;1.93;;
16800;SDS011;8518;53.236;10.384;2022-10-16T06:03:55;2.47;;;1.60;;
16800;SDS011;8518;53.236;10.384;2022-10-16T06:06:22;4.13;;;1.87;;
16800;SDS011;8518;53.236;10.384;2022-10-16T06:08:51;3.20;;;1.77;;
16800;SDS011;8518;53.236;10.384;2022-10-16T06:11:19;3.70;;;2.07;;
16800;SDS011;8518;53.236;10.384;2022-10-16T06:13:53;4.13;;;1.70;;
16800;SDS011;8518;53.236;10.384;2022-10-16T06:16:21;4.20;;;1.60;;
16800;SDS011;8518;53.236;10.384;2022-10-16T06:18:47;3.33;;;1.50;;
16800;SDS011;8518;53.236;10.384;2022-10-16T06:21:16;3.57;;;1.93;;
16800;SDS011;8518;53.236;10.384;2022-10-16T06:23:44;5.17;;;2.10;;
16800;SDS011;8518;53.236;10.384;2022-10-16T06:26:14;4.63;;;1.97;;
16800;SDS011;8518;53.236;10.384;2022-10-16T06:28:42;2.93;;;1.73;;
16800;SDS011;8518;53.236;10.384;2022-10-16T06:31:08;7.27;;;1.93;;
16800;SDS011;8518;53.236;10.384;2022-10-16T06:33:35;2.50;;;1.77;;
16800;SDS011;8518;53.236;10.384;2022-10-16T06:36:02;4.33;;;1.50;;
16800;SDS011;8518;53.236;10.384;2022-10-16T06:38:30;3.23;;;1.70;;
16800;SDS011;8518;53.236;10.384;2022-10-16T06:40:56;2.87;;;1.60;;
16800;SDS011;8518;53.236;10.384;2022-10-16T06:43:22;4.90;;;2.17;;
16800;SDS011;8518;53.236;10.384;2022-10-16T06:45:55;3.37;;;1.80;;
16800;SDS011;8518;53.236;10.384;2022-10-16T06:48:21;2.97;;;1.60;;
16800;SDS011;8518;53.236;10.384;2022-10-16T06:53:45;3.60;;;1.73;;
16800;SDS011;8518;53.236;10.384;2022-10-16T06:56:17;2.27;;;1.63;;
16800;SDS011;8518;53.236;10.384;2022-10-16T06:58:48;2.53;;;1.70;;
16800;SDS011;8518;53.236;10.384;2022-10-16T07:01:15;2.57;;;1.73;;
16800;SDS011;8518;53.236;10.384;2022-10-16T07:03:43;3.77;;;1.60;;
16800;SDS011;8518;53.236;10.384;2022-10-16T07:06:10;4.30;;;1.70;;
16800;SDS011;8518;53.236;10.384;2022-10-16T07:08:39;2.77;;;1.37;;
16800;SDS011;8518;53.236;10.384;2022-10-16T07:11:07;6.77;;;2.00;;
16800;SDS011;8518;53.236;10.384;2022-10-16T07:13:39;6.23;;;1.90;;
16800;SDS011;8518;53.236;10.384;2022-10-16T07:16:13;6.37;;;1.80;;
16800;SDS011;8518;53.236;10.384;2022-10-16T07:18:41;3.77;;;1.63;;
16800;SDS011;8518;53.236;10.384;2022-10-16T07:21:10;7.37;;;2.03;;
16800;SDS011;8518;53.236;10.384;2022-10-16T07:23:41;5.27;;;1.77;;
16800;SDS011;8518;53.236;10.384;2022-10-16T07:26:07;5.40;;;1.60;;
16800;SDS011;8518;53.236;10.384;2022-10-16T07:28:33;3.23;;;1.27;;
16800;SDS011;8518;53.236;10.384;2022-10-16T07:31:02;2.67;;;1.20;;
16800;SDS011;8518;53.236;10.384;2022-10-16T07:33:29;2.63;;;1.20;;
16800;SDS011;8518;53.236;10.384;2022-10-16T07:35:55;3.63;;;1.40;;
16800;SDS011;8518;53.236;10.384;2022-10-16T07:38:21;4.77;;;1.57;;
16800;SDS011;8518;53.236;10.384;2022-10-16T07:40:47;5.33;;;1.73;;
16800;SDS011;8518;53.236;10.384;2022-10-16T07:43:13;3.17;;;1.40;;
16800;SDS011;8518;53.236;10.384;2022-10-16T07:45:48;2.43;;;1.00;;
16800;SDS011;8518;53.236;10.384;2022-10-16T07:48:15;3.33;;;1.10;;
16800;SDS011;8518;53.236;10.384;2022-10-16T07:50:42;2.83;;;0.97;;
16800;SDS011;8518;53.236;10.384;2022-10-16T07:53:08;3.00;;;1.03;;
16800;SDS011;8518;53.236;10.384;2022-10-16T07:55:34;2.42;;;0.98;;
16800;SDS011;8518;53.236;10.384;2022-10-16T07:58:00;2.05;;;1.25;;
16800;SDS011;8518;53.236;10.384;2022-10-16T08:00:25;2.83;;;1.02;;
16800;SDS011;8518;53.236;10.384;2022-10-16T08:02:51;1.08;;;0.98;;
16800;SDS011;8518;53.236;10.384;2022-10-16T08:05:16;3.63;;;1.10;;
16800;SDS011;8518;53.236;10.384;2022-10-16T08:07:42;2.78;;;1.10;;
16800;SDS011;8518;53.236;10.384;2022-10-16T08:10:14;4.85;;;1.38;;
16800;SDS011;8518;53.236;10.384;2022-10-16T08:12:42;1.58;;;0.90;;
16800;SDS011;8518;53.236;10.384;2022-10-16T08:15:08;2.25;;;0.95;;
16800;SDS011;8518;53.236;10.384;2022-10-16T08:17:34;2.97;;;1.20;;
16800;SDS011;8518;53.236;10.384;2022-10-16T08:19:59;2.78;;;1.27;;
16800;SDS011;8518;53.236;10.384;2022-10-16T08:22:25;2.67;;;0.80;;
16800;SDS011;8518;53.236;10.384;2022-10-16T08:24:51;2.35;;;0.80;;
16800;SDS011;8518;53.236;10.384;2022-10-16T08:27:16;1.58;;;0.77;;
16800;SDS011;8518;53.236;10.384;2022-10-16T08:29:42;2.65;;;1.00;;
16800;SDS011;8518;53.236;10.384;2022-10-16T08:32:07;2.07;;;1.00;;
16800;SDS011;8518;53.236;10.384;2022-10-16T08:34:33;2.33;;;0.90;;
16800;SDS011;8518;53.236;10.384;2022-10-16T08:36:59;2.70;;;1.00;;
16800;SDS011;8518;53.236;10.384;2022-10-16T08:39:24;1.90;;;0.88;;
16800;SDS011;8518;53.236;10.384;2022-10-16T08:41:56;2.67;;;1.00;;
16800;SDS011;8518;53.236;10.384;2022-10-16T08:44:48;3.15;;;1.00;;
16800;SDS011;8518;53.236;10.384;2022-10-16T08:50:13;2.25;;;0.82;;
16800;SDS011;8518;53.236;10.384;2022-10-16T08:52:46;1.73;;;0.93;;
16800;SDS011;8518;53.236;10.384;2022-10-16T08:55:31;2.40;;;0.90;;
16800;SDS011;8518;53.236;10.384;2022-10-16T08:58:09;2.03;;;0.95;;
16800;SDS011;8518;53.236;10.384;2022-10-16T09:00:40;1.02;;;0.70;;
16800;SDS011;8518;53.236;10.384;2022-10-16T09:05:55;1.10;;;0.70;;
16800;SDS011;8518;53.236;10.384;2022-10-16T09:17:32;0.73;;;0.60;;
16800;SDS011;8518;53.236;10.384;2022-10-16T09:25:41;2.28;;;0.65;;
16800;SDS011;8518;53.236;10.384;2022-10-16T09:28:09;2.70;;;0.98;;
16800;SDS011;8518;53.236;10.384;2022-10-16T09:30:35;2.90;;;0.80;;
16800;SDS011;8518;53.236;10.384;2022-10-16T09:33:03;3.35;;;1.00;;
16800;SDS011;8518;53.236;10.384;2022-10-16T09:35:43;1.50;;;0.60;;
16800;SDS011;8518;53.236;10.384;2022-10-16T09:38:20;2.58;;;0.77;;
16800;SDS011;8518;53.236;10.384;2022-10-16T09:40:54;3.28;;;0.70;;
16800;SDS011;8518;53.236;10.384;2022-10-16T09:46:05;1.25;;;0.47;;
16800;SDS011;8518;53.236;10.384;2022-10-16T09:48:37;1.60;;;0.70;;
16800;SDS011;8518;53.236;10.384;2022-10-16T09:51:15;3.17;;;0.77;;
16800;SDS011;8518;53.236;10.384;2022-10-16T09:53:54;1.75;;;0.57;;
16800;SDS011;8518;53.236;10.384;2022-10-16T09:56:23;2.30;;;0.73;;
16800;SDS011;8518;53.236;10.384;2022-10-16T09:58:52;2.40;;;0.60;;
16800;SDS011;8518;53.236;10.384;2022-10-16T10:01:19;2.00;;;0.80;;
16800;SDS011;8518;53.236;10.384;2022-10-16T10:03:47;3.13;;;0.52;;
16800;SDS011;8518;53.236;10.384;2022-10-16T10:06:20;1.38;;;0.63;;
16800;SDS011;8518;53.236;10.384;2022-10-16T10:08:58;1.42;;;0.65;;
16800;SDS011;8518;53.236;10.384;2022-10-16T10:14:24;1.50;;;0.60;;
16800;SDS011;8518;53.236;10.384;2022-10-16T10:17:09;2.97;;;0.60;;
16800;SDS011;8518;53.236;10.384;2022-10-16T10:27:43;2.05;;;0.55;;
16800;SDS011;8518;53.236;10.384;2022-10-16T10:30:31;2.30;;;0.63;;
16800;SDS011;8518;53.236;10.384;2022-10-16T10:44:00;2.88;;;0.95;;
16800;SDS011;8518;53.236;10.384;2022-10-16T10:46:35;3.00;;;0.60;;
16800;SDS011;8518;53.236;10.384;2022-10-16T10:52:02;2.15;;;0.80;;
16800;SDS011;8518;53.236;10.384;2022-10-16T10:59:51;1.58;;;0.60;;
16800;SDS011;8518;53.236;10.384;2022-10-16T11:08:11;3.42;;;0.50;;
16800;SDS011;8518;53.236;10.384;2022-10-16T11:10:46;1.48;;;0.50;;
16800;SDS011;8518;53.236;10.384;2022-10-16T11:16:16;0.88;;;0.40;;
16800;SDS011;8518;53.236;10.384;2022-10-16T11:21:17;2.47;;;0.65;;
16800;SDS011;8518;53.236;10.384;2022-10-16T11:23:56;2.15;;;0.50;;
16800;SDS011;8518;53.236;10.384;2022-10-16T11:26:27;1.42;;;0.60;;
16800;SDS011;8518;53.236;10.384;2022-10-16T11:28:57;3.05;;;0.65;;
16800;SDS011;8518;53.236;10.384;2022-10-16T11:36:36;1.70;;;0.80;;
16800;SDS011;8518;53.236;10.384;2022-10-16T11:39:18;1.75;;;0.60;;
16800;SDS011;8518;53.236;10.384;2022-10-16T11:42:13;3.15;;;0.75;;
16800;SDS011;8518;53.236;10.384;2022-10-16T11:45:23;3.08;;;0.85;;
16800;SDS011;8518;53.236;10.384;2022-10-16T11:48:48;1.83;;;0.70;;
16800;SDS011;8518;53.236;10.384;2022-10-16T11:50:54;1.67;;;0.52;;
16800;SDS011;8518;53.236;10.384;2022-10-16T11:56:16;1.73;;;0.60;;
16800;SDS011;8518;53.236;10.384;2022-10-16T12:01:34;3.65;;;0.65;;
16800;SDS011;8518;53.236;10.384;2022-10-16T12:04:18;4.53;;;0.70;;
16800;SDS011;8518;53.236;10.384;2022-10-16T12:07:11;1.70;;;0.70;;
16800;SDS011;8518;53.236;10.384;2022-10-16T12:09:40;3.33;;;0.70;;
16800;SDS011;8518;53.236;10.384;2022-10-16T12:12:25;1.98;;;0.40;;
16800;SDS011;8518;53.236;10.384;2022-10-16T12:15:01;2.47;;;0.55;;
16800;SDS011;8518;53.236;10.384;2022-10-16T12:17:42;1.48;;;0.65;;
16800;SDS011;8518;53.236;10.384;2022-10-16T12:22:37;1.55;;;0.70;;
16800;SDS011;8518;53.236;10.384;2022-10-16T12:25:26;3.05;;;0.60;;
16800;SDS011;8518;53.236;10.384;2022-10-16T12:27:57;1.67;;;0.80;;
16800;SDS011;8518;53.236;10.384;2022-10-16T12:30:26;2.45;;;0.60;;
16800;SDS011;8518;53.236;10.384;2022-10-16T12:32:55;2.72;;;0.80;;
16800;SDS011;8518;53.236;10.384;2022-10-16T12:35:27;1.88;;;0.50;;
16800;SDS011;8518;53.236;10.384;2022-10-16T12:38:04;2.30;;;0.68;;
16800;SDS011;8518;53.236;10.384;2022-10-16T12:40:32;1.52;;;0.60;;
16800;SDS011;8518;53.236;10.384;2022-10-16T12:43:10;2.15;;;0.70;;
16800;SDS011;8518;53.236;10.384;2022-10-16T12:45:38;2.58;;;0.90;;
16800;SDS011;8518;53.236;10.384;2022-10-16T12:48:17;3.20;;;0.85;;
16800;SDS011;8518;53.236;10.384;2022-10-16T12:50:45;3.42;;;0.63;;
16800;SDS011;8518;53.236;10.384;2022-10-16T12:53:21;2.60;;;0.70;;
16800;SDS011;8518;53.236;10.384;2022-10-16T12:56:00;3.75;;;0.90;;
16800;SDS011;8518;53.236;10.384;2022-10-16T12:58:35;2.83;;;0.88;;
16800;SDS011;8518;53.236;10.384;2022-10-16T13:07:17;1.85;;;0.57;;
16800;SDS011;8518;53.236;10.384;2022-10-16T13:10:06;2.25;;;0.60;;
16800;SDS011;8518;53.236;10.384;2022-10-16T13:12:42;1.35;;;0.60;;
16800;SDS011;8518;53.236;10.384;2022-10-16T13:26:09;2.28;;;0.70;;
16800;SDS011;8518;53.236;10.384;2022-10-16T13:28:45;1.63;;;0.63;;
16800;SDS011;8518;53.236;10.384;2022-10-16T13:31:13;2.95;;;0.65;;
16800;SDS011;8518;53.236;10.384;2022-10-16T13:33:45;2.65;;;0.80;;
16800;SDS011;8518;53.236;10.384;2022-10-16T13:36:23;3.25;;;0.88;;
16800;SDS011;8518;53.236;10.384;2022-10-16T13:39:06;3.55;;;0.70;;
16800;SDS011;8518;53.236;10.384;2022-10-16T13:41:41;2.35;;;0.60;;
16800;SDS011;8518;53.236;10.384;2022-10-16T13:44:19;4.93;;;0.80;;
16800;SDS011;8518;53.236;10.384;2022-10-16T13:46:45;2.63;;;0.80;;
16800;SDS011;8518;53.236;10.384;2022-10-16T13:49:23;1.85;;;0.40;;
16800;SDS011;8518;53.236;10.384;2022-10-16T13:51:55;2.13;;;0.70;;
16800;SDS011;8518;53.236;10.384;2022-10-16T13:54:22;1.67;;;0.80;;
16800;SDS011;8518;53.236;10.384;2022-10-16T13:56:48;1.92;;;0.63;;
16800;SDS011;8518;53.236;10.384;2022-10-16T14:01:57;4.30;;;1.27;;
16800;SDS011;8518;53.236;10.384;2022-10-16T14:04:31;3.38;;;0.70;;
16800;SDS011;8518;53.236;10.384;2022-10-16T14:06:58;3.33;;;0.68;;
16800;SDS011;8518;53.236;10.384;2022-10-16T14:09:27;2.33;;;0.70;;
16800;SDS011;8518;53.236;10.384;2022-10-16T14:12:01;4.60;;;1.05;;
16800;SDS011;8518;53.236;10.384;2022-10-16T14:14:35;1.98;;;0.70;;
16800;SDS011;8518;53.236;10.384;2022-10-16T14:17:13;3.60;;;0.85;;
16800;SDS011;8518;53.236;10.384;2022-10-16T14:19:47;1.73;;;0.82;;
16800;SDS011;8518;53.236;10.384;2022-10-16T14:30:25;4.40;;;1.40;;
16800;SDS011;8518;53.236;10.384;2022-10-16T14:32:58;3.67;;;0.80;;
16800;SDS011;8518;53.236;10.384;2022-10-16T14:35:33;3.75;;;0.60;;
16800;SDS011;8518;53.236;10.384;2022-10-16T14:38:00;4.55;;;1.55;;
16800;SDS011;8518;53.236;10.384;2022-10-16T14:40:29;5.38;;;1.67;;
16800;SDS011;8518;53.236;10.384;2022-10-16T14:42:56;2.30;;;0.82;;
16800;SDS011;8518;53.236;10.384;2022-10-16T14:45:27;32.25;;;14.43;;
16800;SDS011;8518;53.236;10.384;2022-10-16T14:47:59;2.83;;;0.85;;
16800;SDS011;8518;53.236;10.384;2022-10-16T14:50:38;2.42;;;0.80;;
16800;SDS011;8518;53.236;10.384;2022-10-16T14:53:08;2.38;;;0.80;;
16800;SDS011;8518;53.236;10.384;2022-10-16T14:55:37;1.85;;;0.70;;
16800;SDS011;8518;53.236;10.384;2022-10-16T14:58:03;3.35;;;0.80;;
16800;SDS011;8518;53.236;10.384;2022-10-16T15:00:29;3.03;;;0.88;;
16800;SDS011;8518;53.236;10.384;2022-10-16T15:02:55;3.92;;;0.80;;
16800;SDS011;8518;53.236;10.384;2022-10-16T15:05:21;3.13;;;0.80;;
16800;SDS011;8518;53.236;10.384;2022-10-16T15:07:50;1.98;;;0.50;;
16800;SDS011;8518;53.236;10.384;2022-10-16T15:10:17;1.85;;;0.73;;
16800;SDS011;8518;53.236;10.384;2022-10-16T15:12:43;2.80;;;1.00;;
16800;SDS011;8518;53.236;10.384;2022-10-16T15:15:15;2.45;;;0.73;;
16800;SDS011;8518;53.236;10.384;2022-10-16T15:17:47;1.85;;;0.65;;
16800;SDS011;8518;53.236;10.384;2022-10-16T15:20:29;2.70;;;0.95;;
16800;SDS011;8518;53.236;10.384;2022-10-16T15:22:58;2.80;;;0.77;;
16800;SDS011;8518;53.236;10.384;2022-10-16T15:28:06;2.70;;;0.70;;
16800;SDS011;8518;53.236;10.384;2022-10-16T15:30:32;5.53;;;0.80;;
16800;SDS011;8518;53.236;10.384;2022-10-16T15:32:59;3.03;;;0.75;;
16800;SDS011;8518;53.236;10.384;2022-10-16T15:35:24;2.92;;;0.80;;
16800;SDS011;8518;53.236;10.384;2022-10-16T15:37:51;3.22;;;1.08;;
16800;SDS011;8518;53.236;10.384;2022-10-16T15:40:18;3.10;;;0.70;;
16800;SDS011;8518;53.236;10.384;2022-10-16T15:42:45;1.90;;;0.70;;
16800;SDS011;8518;53.236;10.384;2022-10-16T15:45:11;4.33;;;1.13;;
16800;SDS011;8518;53.236;10.384;2022-10-16T15:47:37;2.93;;;0.80;;
16800;SDS011;8518;53.236;10.384;2022-10-16T15:50:04;3.90;;;0.80;;
16800;SDS011;8518;53.236;10.384;2022-10-16T15:52:30;2.47;;;0.60;;
16800;SDS011;8518;53.236;10.384;2022-10-16T15:54:57;3.45;;;1.02;;
16800;SDS011;8518;53.236;10.384;2022-10-16T15:57:23;4.80;;;1.17;;
16800;SDS011;8518;53.236;10.384;2022-10-16T15:59:49;2.47;;;0.93;;
16800;SDS011;8518;53.236;10.384;2022-10-16T16:02:14;3.17;;;0.90;;
16800;SDS011;8518;53.236;10.384;2022-10-16T16:04:40;4.70;;;0.93;;
16800;SDS011;8518;53.236;10.384;2022-10-16T16:07:06;5.43;;;1.17;;
16800;SDS011;8518;53.236;10.384;2022-10-16T16:09:35;3.53;;;0.77;;
16800;SDS011;8518;53.236;10.384;2022-10-16T16:12:00;2.00;;;0.73;;
16800;SDS011;8518;53.236;10.384;2022-10-16T16:14:26;3.37;;;0.60;;
16800;SDS011;8518;53.236;10.384;2022-10-16T16:16:53;4.60;;;0.80;;
16800;SDS011;8518;53.236;10.384;2022-10-16T16:19:19;2.27;;;0.67;;
16800;SDS011;8518;53.236;10.384;2022-10-16T16:21:46;2.07;;;0.80;;
16800;SDS011;8518;53.236;10.384;2022-10-16T16:24:15;2.70;;;0.90;;
16800;SDS011;8518;53.236;10.384;2022-10-16T16:26:41;3.13;;;0.80;;
16800;SDS011;8518;53.236;10.384;2022-10-16T16:29:11;5.67;;;0.93;;
16800;SDS011;8518;53.236;10.384;2022-10-16T16:31:38;4.17;;;0.70;;
16800;SDS011;8518;53.236;10.384;2022-10-16T16:34:05;3.27;;;1.00;;
16800;SDS011;8518;53.236;10.384;2022-10-16T16:36:31;3.00;;;0.70;;
16800;SDS011;8518;53.236;10.384;2022-10-16T16:38:58;3.47;;;0.97;;
16800;SDS011;8518;53.236;10.384;2022-10-16T16:41:24;3.17;;;0.77;;
16800;SDS011;8518;53.236;10.384;2022-10-16T16:43:52;3.83;;;0.77;;
16800;SDS011;8518;53.236;10.384;2022-10-16T16:46:19;3.97;;;0.83;;
16800;SDS011;8518;53.236;10.384;2022-10-16T16:48:46;2.70;;;0.80;;
16800;SDS011;8518;53.236;10.384;2022-10-16T16:51:16;4.07;;;1.10;;
16800;SDS011;8518;53.236;10.384;2022-10-16T16:53:45;3.73;;;1.20;;
16800;SDS011;8518;53.236;10.384;2022-10-16T16:56:12;4.60;;;1.27;;
16800;SDS011;8518;53.236;10.384;2022-10-16T16:58:38;5.70;;;1.00;;
16800;SDS011;8518;53.236;10.384;2022-10-16T17:01:04;9.53;;;1.00;;
16800;SDS011;8518;53.236;10.384;2022-10-16T17:03:31;3.43;;;1.30;;
16800;SDS011;8518;53.236;10.384;2022-10-16T17:05:59;3.23;;;1.20;;
16800;SDS011;8518;53.236;10.384;2022-10-16T17:08:29;4.03;;;1.53;;
16800;SDS011;8518;53.236;10.384;2022-10-16T17:10:55;3.40;;;1.20;;
16800;SDS011;8518;53.236;10.384;2022-10-16T17:13:25;5.20;;;1.77;;
16800;SDS011;8518;53.236;10.384;2022-10-16T17:15:52;4.33;;;1.20;;